Byers, TX (76357)

7:59 PM CDT on October 22, 2014 (GMT -0500)
Henrietta | Change Station
CLOSE
Current Station
Personal Weather Station
Location: Henrietta, TX
Elevation: 930 ft
Nearby Weather Stations

Elev 930 ft 33.82 °N, 98.20 °W | Updated 4 minutes ago

Overcast
Overcast
72.6 °F
Feels Like 75 °F
N
0.0
Wind Variable Wind from South
Gusts 0.0 mph

Today
High -- | Low -- °F
--% Chance of Precip.
Yesterday
High -- | Low -- °F
Precip. -- in
7:43 AM 6:50 PM
Waning Crescent, 1% visible
Pressure 30.06 in
Visibility 10.0 miles
Clouds Mostly Cloudy 12000 ft
Heat Index 75 °F
Dew Point 63 °F
Humidity 71%
Rainfall 0.00 in
Snow Depth Not available.
UV 0 out of 12
Pollen 5.50 out of 12
Air Quality Not available.
Flu Activity Sporadic
METAR KSPS 230052Z 00000KT 10SM BKN120 19/16 A3008 RMK AO2 RAB2354E51 SLP179 P0000 T01940161

More Conditions Fewer Conditions

Pressure 30.06 in
Visibility 10.0 miles
Clouds Mostly Cloudy 12000 ft
Heat Index 75 °F
Dew Point 63 °F
Humidity 71%
Rainfall 0.00 in
Snow Depth Not available.
UV 0 out of 12
Pollen 5.50 out of 12
Air Quality Not available.
Flu Activity Sporadic
METAR KSPS 230052Z 00000KT 10SM BKN120 19/16 A3008 RMK AO2 RAB2354E51 SLP179 P0000 T01940161

More Conditions Fewer Conditions

10-Day Weather Forecast

Almanac

Astronomy

Oct. 22, 2014 Rise Set
Actual Time 7:43 AM CDT 6:50 PM CDT
Civil Twilight 7:18 AM CDT 7:15 PM CDT
Nautical Twilight 6:48 AM CDT 7:44 PM CDT
Astronomical Twilight 6:19 AM CDT 8:13 PM CDT
Moon 6:29 AM CDT (10/22) 6:15 PM CDT (10/22)
Length of Visible Light 11h 57m
Length of Day
11h 06m
Tomorrow will be 1m 59s shorter.
Waning Crescent, 1% of the Moon is Illuminated
Today
Waning Crescent
Oct 23
New
Oct 30
First Quarter
Nov 6
Full
Nov 14
Last Quarter

Today's Extremes

State Highs State Lows

Community

WunderPhotos

Upload Photos

1,764,098 photos uploaded!

WunderBlogs® & News

Nearby

Snow Depth

Station Depth Elevation
No new snow has been reported.

Earthquake Activity

City Distance Mag. Time & Date
Langston, Oklahoma 139 miles 2.9 10:03 AM CDT
2014-10-22
Langston, Oklahoma 139 miles 2.6 8:31 AM CDT
2014-10-22
Luther, Oklahoma 120 miles 2.8 4:33 PM CDT
2014-10-20
Boley, Oklahoma 131 miles 3.5 3:34 PM CDT
2014-10-20
Minimum magnitude displayed is 2.5.

Coastal Water Temperatures

Place Temperature
No Stations Reporting

Nearby Weather Stations